• Join FlightAware (Why Join?)
  • Login
  • US Flag 
08:54AM EST


 

Airport Tracker/Info


-or-


 

Live Flight TrackerFlight Track Log ✈ CTL15 ✈ 16-Jul-2013 ✈ KMGY - KBKL

Flight Track Log - Related Links

Times and Time Zones

All times are in EDT time to prevent confusion due to time zone crossing. See the CTL15 flight status page for this flight to view local times or setup timezone preferences in your user account.

Time Position Orientation Groundspeed Altitude Reporting Facility
EDT Latitude Longitude Course Direction KTS MPH feet Rate Location/Type
07:48PM 39.6494 -84.1431 49° Northeast 162 186 1,900  Level Indianapolis Center
07:49PM 39.6792 -84.0992 49° Northeast 164 189 2,400 420 Climbing Indianapolis Center
07:50PM 39.7064 -84.0606 47° Northeast 160 184 2,800 360 Climbing Indianapolis Center
07:51PM 39.7364 -84.0167 48° Northeast 163 188 3,200 360 Climbing Indianapolis Center
07:52PM 39.7656 -83.9783 45° Northeast 164 189 3,500 240 Climbing Indianapolis Center
07:53PM 39.7975 -83.9347 46° Northeast 169 194 3,700 180 Climbing Indianapolis Center
07:54PM 39.8322 -83.8833 49° Northeast 163 188 4,000 180 Climbing Indianapolis Center
07:55PM 39.8569 -83.8469 48° Northeast 175 201 4,100  Climbing Indianapolis Center
07:56PM 39.9006 -83.7917 44° Northeast 177 204 4,000 -60 Descending Indianapolis Center
07:57PM 39.9247 -83.7603 45° Northeast 173 199 4,000 480 Level Indianapolis Center
07:58PM 39.9539 -83.7217 45° Northeast 136 157 4,900 720 Climbing Indianapolis Center
07:59PM 39.9831 -83.6828 46° Northeast 145 167 5,500 600 Climbing Indianapolis Center
08:00PM 40.0053 -83.6511 48° Northeast 144 166 6,100 660 Climbing Indianapolis Center
08:01PM 40.0392 -83.6075 45° Northeast 144 166 6,900 300 Climbing Indianapolis Center
08:02PM 40.0728 -83.5667 43° Northeast 159 183 6,900  Level Indianapolis Center
08:03PM 40.1089 -83.5208 44° Northeast 176 203 6,900  Level Indianapolis Center
08:04PM 40.1472 -83.4725 44° Northeast 177 204 6,900  Level Indianapolis Center
08:05PM 40.1875 -83.4264 41° Northeast 188 216 6,900  Level Indianapolis Center
08:06PM 40.2236 -83.3814 44° Northeast 171 197 6,900  Level Indianapolis Center
08:07PM 40.2494 -83.3450 47° Northeast 172 198 7,000  Climbing Indianapolis Center
08:08PM 40.2892 -83.2925 45° Northeast 173 199 7,000  Level Indianapolis Center
08:09PM 40.3244 -83.2481 44° Northeast 173 199 7,000  Level Indianapolis Center
08:10PM 40.3589 -83.2028 45° Northeast 173 199 7,000 -60 Level Indianapolis Center
08:11PM 40.3867 -83.1722 40° Northeast 172 198 6,900 -60 Descending Indianapolis Center
08:12PM 40.4311 -83.1142 45° Northeast 176 203 6,900  Level Indianapolis Center
08:13PM 40.4686 -83.0733 40° Northeast 175 201 6,900  Level Indianapolis Center
08:14PM 40.5100 -83.0256 41° Northeast 174 200 6,900  Level Indianapolis Center
08:15PM 40.5411 -82.9875 43° Northeast 174 200 6,900  Level Indianapolis Center
08:16PM 40.5775 -82.9458 41° Northeast 173 199 6,900  Level Indianapolis Center
08:17PM 40.6133 -82.8989 45° Northeast 176 203 6,900  Level Indianapolis Center
08:18PM 40.6544 -82.8472 44° Northeast 175 201 6,900  Level Indianapolis Center
08:20PM 40.6903 -82.8019 44° Northeast 176 203 6,900  Level Indianapolis Center
08:21PM 40.7275 -82.7608 40° Northeast 174 200 6,900  Level Indianapolis Center
08:22PM 40.7669 -82.7161 41° Northeast 177 204 7,000 -300 Climbing Indianapolis Center
08:23PM 40.8064 -82.6725 40° Northeast 182 209 6,300 -660 Descending Indianapolis Center
08:24PM 40.8467 -82.6236 43° Northeast 189 217 5,700 -540 Descending Indianapolis Center
08:25PM 40.8847 -82.5722 46° Northeast 192 221 5,300 -540 Descending Indianapolis Center
08:26PM 40.9178 -82.5258 47° Northeast 192 221 4,700 -780 Descending Cleveland Center
08:26PM 40.9539 -82.4803 44° Northeast 197 227 4,000 -720 Descending Cleveland Center
08:27PM 40.9925 -82.4261 47° Northeast 197 227 3,400 -600 Descending Cleveland Center
08:28PM 41.0308 -82.3750 45° Northeast 198 228 2,900 -300 Descending Cleveland Center
08:29PM 41.0606 -82.3317 48° Northeast 175 201 2,900  Level Cleveland Center
08:30PM 41.0906 -82.2775 54° Northeast 176 203 2,900  Level Cleveland Center
08:31PM 41.1039 -82.2172 74° East 186 214 2,900  Level Cleveland Center
08:32PM 41.1194 -82.1542 72° East 181 208 2,900  Level Cleveland Center
08:34PM 41.1414 -82.0747 70° East 182 209 2,900 -60 Level Cleveland Center
08:35PM 41.1506 -82.0142 79° East 181 208 2,800  Descending Cleveland Center
08:35PM 41.1658 -81.9567 71° East 180 207 2,900  Climbing Cleveland Center
08:36PM 41.1811 -81.8964 71° East 181 208 2,900 -60 Level Cleveland Center
08:38PM 41.1986 -81.8250 72° East 176 203 2,800  Descending Cleveland Center
08:39PM 41.2325 -81.7675 52° Northeast 173 199 2,900  Climbing Cleveland Center
08:40PM 41.2622 -81.7267 46° Northeast 174 200 2,900  Level Cleveland Center
08:41PM 41.2961 -81.6775 47° Northeast 175 201 2,900 -60 Level Cleveland Center
08:42PM 41.3278 -81.6339 46° Northeast 173 199 2,800 -180 Descending Cleveland Center
08:43PM 41.3758 -81.6153 16° North 176 203 2,600 -360 Descending Cleveland Center
08:44PM 41.4217 -81.6217 354° North 182 209 2,100 -540 Descending Cleveland Center
08:45PM 41.4736 -81.6361 348° North 165 190 1,600 -540 Descending Cleveland Center
08:46PM 41.5150 -81.6564 340° North 143 165 1,000 -540 Descending Cleveland Center
08:48PM 41.5175 -81.6833 230° Southwest  Level Estimated